Time;durP1;ratioP1;P1;durP2;ratioP2;P2;SDS_P1;SDS_P2;PMS_P1;PMS_P2;Temp;Humidity;BMP_temperature;BMP_pressure;BME280_temperature;BME280_humidity;BME280_pressure;Samples;Min_cycle;Max_cycle;Signal;HPM_P1;HPM_P2
2022/12/04 00:02:17;;;;;;;;;;;2.60;99.90;;;;;;5109085;28;20132;-77
2022/12/04 00:04:44;;;;;;;;;;;2.60;99.90;;;;;;5108779;28;19935;-77
2022/12/04 00:07:11;;;;;;;;;;;2.60;99.90;;;;;;5109833;28;19924;-74
2022/12/04 00:09:37;;;;;;;;;;;2.50;99.90;;;;;;5106475;28;19927;-77
2022/12/04 00:12:04;;;;;;;;;;;2.60;99.90;;;;;;5110166;28;19932;-76
2022/12/04 00:14:31;;;;;;;;;;;2.60;99.90;;;;;;5108429;28;19931;-75
2022/12/04 00:16:58;;;;;;;;;;;2.50;99.90;;;;;;5127447;28;19927;-76
2022/12/04 00:19:27;;;;;;;;;;;2.50;99.90;;;;;;5123424;28;19924;-76
2022/12/04 00:21:54;;;;;;;;;;;2.60;99.90;;;;;;5108635;28;19924;-78
2022/12/04 00:24:21;;;;;;;;;;;2.60;99.90;;;;;;5112494;28;19957;-79
2022/12/04 00:26:48;;;;;;;;;;;2.60;99.90;;;;;;5131434;28;19928;-79
2022/12/04 00:29:15;;;;;;;;;;;2.60;99.90;;;;;;5110595;28;20020;-77
2022/12/04 00:31:42;;;;;;;;;;;2.60;99.90;;;;;;5127780;27;19931;-79
2022/12/04 00:34:09;;;;;;;;;;;2.70;99.90;;;;;;5129403;28;19931;-80
2022/12/04 00:36:37;;;;;;;;;;;2.70;99.90;;;;;;5113117;28;19931;-79
2022/12/04 00:39:05;;;;;;;;;;;2.70;99.90;;;;;;5113347;27;20026;-79
2022/12/04 00:41:32;;;;;;;;;;;2.70;99.90;;;;;;5136032;27;19923;-82
2022/12/04 00:44:02;;;;;;;;;;;2.70;99.90;;;;;;5110709;27;19924;-79
2022/12/04 00:46:29;;;;;;;;;;;2.80;99.90;;;;;;5105434;27;19934;-80
2022/12/04 00:48:57;;;;;;;;;;;2.70;99.90;;;;;;5114222;27;19923;-81
2022/12/04 00:51:25;;;;;;;;;;;2.60;99.90;;;;;;5110061;27;20030;-80
2022/12/04 00:53:54;;;;;;;;;;;2.60;99.90;;;;;;5133749;27;19923;-80
2022/12/04 00:56:22;;;;;;;;;;;2.60;99.90;;;;;;5128830;27;20340;-80
2022/12/04 00:58:51;;;;;;;;;;;2.60;99.90;;;;;;5132440;27;19976;-81
2022/12/04 01:01:19;;;;;;;;;;;2.60;99.90;;;;;;5125187;27;20374;-78
2022/12/04 01:03:46;;;;;;;;;;;2.60;99.90;;;;;;5114261;27;19924;-79
2022/12/04 01:06:20;;;;;;;;;;;2.50;99.90;;;;;;5114515;27;19927;-79
2022/12/04 01:08:47;;;;;;;;;;;2.50;99.90;;;;;;5126430;27;20381;-77
2022/12/04 01:11:16;;;;;;;;;;;2.50;99.90;;;;;;5134084;27;20350;-79
2022/12/04 01:13:43;;;;;;;;;;;2.50;99.90;;;;;;5108406;27;19931;-80
2022/12/04 01:16:15;;;;;;;;;;;2.60;99.90;;;;;;5127710;27;20505;-79
2022/12/04 01:18:42;;;;;;;;;;;2.60;99.90;;;;;;5126274;27;19931;-79
2022/12/04 01:21:09;;;;;;;;;;;2.60;99.90;;;;;;5125834;27;19985;-79
2022/12/04 01:23:36;;;;;;;;;;;2.60;99.90;;;;;;5113762;27;19970;-79
2022/12/04 01:26:03;;;;;;;;;;;2.60;99.90;;;;;;5114732;27;19923;-79
2022/12/04 01:28:31;;;;;;;;;;;2.60;99.90;;;;;;5113031;27;20014;-78
2022/12/04 01:30:59;;;;;;;;;;;2.60;99.90;;;;;;5111650;27;19927;-78
2022/12/04 01:33:26;;;;;;;;;;;2.60;99.90;;;;;;5125681;27;19923;-78
2022/12/04 01:35:53;;;;;;;;;;;2.60;99.90;;;;;;5107420;27;20279;-77
2022/12/04 01:38:20;;;;;;;;;;;2.60;99.90;;;;;;5111196;27;20305;-78
2022/12/04 01:40:47;;;;;;;;;;;2.50;99.90;;;;;;5132822;27;19927;-78
2022/12/04 01:43:15;;;;;;;;;;;2.50;99.90;;;;;;5128673;27;19942;-78
2022/12/04 01:45:44;;;;;;;;;;;2.50;99.90;;;;;;5107393;27;19927;-77
2022/12/04 01:48:14;;;;;;;;;;;2.60;99.90;;;;;;5128996;27;19934;-78
2022/12/04 01:50:42;;;;;;;;;;;2.60;99.90;;;;;;5112993;27;19924;-79
2022/12/04 01:53:09;;;;;;;;;;;2.60;99.90;;;;;;5113964;27;19938;-79
2022/12/04 01:55:36;;;;;;;;;;;2.60;99.90;;;;;;5133756;27;20015;-78
2022/12/04 01:58:03;;;;;;;;;;;2.60;99.90;;;;;;5131403;27;20251;-78
2022/12/04 02:00:30;;;;;;;;;;;2.70;99.90;;;;;;5105794;27;19990;-78
2022/12/04 02:02:58;;;;;;;;;;;2.70;99.90;;;;;;5123010;27;19931;-79
2022/12/04 02:08:54;;;;;;;;;;;2.70;99.90;;;;;;5124645;27;19989;-77
2022/12/04 02:11:27;;;;;;;;;;;2.60;99.90;;;;;;5125010;27;19974;-77
2022/12/04 02:13:57;;;;;;;;;;;2.60;99.90;;;;;;5123176;27;19927;-77
2022/12/04 02:16:25;;;;;;;;;;;2.50;99.90;;;;;;5111694;27;19924;-76
2022/12/04 02:18:57;;;;;;;;;;;2.50;99.90;;;;;;5112006;27;19970;-77
2022/12/04 02:21:28;;;;;;;;;;;2.50;99.90;;;;;;5128584;27;20010;-77
2022/12/04 02:24:09;;;;;;;;;;;2.60;99.90;;;;;;5112792;27;19976;-77
2022/12/04 02:26:46;;;;;;;;;;;2.50;99.90;;;;;;5128809;27;19931;-79
2022/12/04 02:29:21;;;;;;;;;;;2.50;99.90;;;;;;5128132;27;19930;-77
2022/12/04 02:31:50;;;;;;;;;;;2.50;99.90;;;;;;5111225;27;19935;-78
2022/12/04 02:34:22;;;;;;;;;;;2.60;99.90;;;;;;5128115;27;19969;-77
2022/12/04 02:36:52;;;;;;;;;;;2.60;99.90;;;;;;5126878;27;19932;-78
2022/12/04 02:39:21;;;;;;;;;;;1.90;99.90;;;;;;5128656;27;19980;-78
2022/12/04 02:41:54;;;;;;;;;;;2.60;99.90;;;;;;5111247;27;19980;-77
2022/12/04 02:44:25;;;;;;;;;;;2.50;99.90;;;;;;5109845;27;19942;-78
2022/12/04 02:46:55;;;;;;;;;;;2.50;99.90;;;;;;5112146;27;19927;-78
2022/12/04 02:49:26;;;;;;;;;;;2.50;99.90;;;;;;5111659;27;20562;-78
2022/12/04 02:51:55;;;;;;;;;;;2.40;99.90;;;;;;5130180;27;19950;-78
2022/12/04 02:54:25;;;;;;;;;;;2.40;99.90;;;;;;5111710;27;19946;-77
2022/12/04 02:56:56;;;;;;;;;;;2.40;99.90;;;;;;5111292;27;20403;-76
2022/12/04 02:59:27;;;;;;;;;;;2.40;99.90;;;;;;5129976;27;19939;-77
2022/12/04 03:01:55;;;;;;;;;;;2.30;99.90;;;;;;5109344;27;20002;-77
2022/12/04 03:04:23;;;;;;;;;;;2.40;99.90;;;;;;5109394;27;20014;-76
2022/12/04 03:06:52;;;;;;;;;;;2.40;99.90;;;;;;5110779;27;19931;-77
2022/12/04 03:09:21;;;;;;;;;;;2.50;99.90;;;;;;5129973;27;19931;-78
2022/12/04 03:11:51;;;;;;;;;;;2.50;99.90;;;;;;5112074;27;19939;-78
2022/12/04 03:14:21;;;;;;;;;;;2.50;99.90;;;;;;5106951;28;20625;-78
2022/12/04 03:16:52;;;;;;;;;;;2.40;99.90;;;;;;5108244;27;19935;-79
2022/12/04 03:19:21;;;;;;;;;;;2.40;99.90;;;;;;5112785;27;19927;-79
2022/12/04 03:21:49;;;;;;;;;;;2.40;99.90;;;;;;5109743;27;19935;-78
2022/12/04 03:24:20;;;;;;;;;;;2.50;99.90;;;;;;5124939;27;19923;-78
2022/12/04 03:26:48;;;;;;;;;;;2.50;99.90;;;;;;5104001;27;19930;-78
2022/12/04 03:29:18;;;;;;;;;;;2.50;99.90;;;;;;5110720;27;20000;-78
2022/12/04 03:31:46;;;;;;;;;;;2.50;99.90;;;;;;5105207;27;19923;-78
2022/12/04 03:34:19;;;;;;;;;;;1.70;99.90;;;;;;5128463;27;19976;-77
2022/12/04 03:36:48;;;;;;;;;;;2.50;99.90;;;;;;5101775;27;19927;-75
2022/12/04 03:39:18;;;;;;;;;;;2.50;99.90;;;;;;5103062;27;20280;-75
2022/12/04 03:41:53;;;;;;;;;;;2.50;99.90;;;;;;5101599;27;19982;-75
2022/12/04 03:44:22;;;;;;;;;;;2.50;99.90;;;;;;5118973;27;19972;-75
2022/12/04 03:46:51;;;;;;;;;;;2.40;99.90;;;;;;5104917;27;19940;-75
2022/12/04 03:49:21;;;;;;;;;;;2.40;99.90;;;;;;5110628;27;20022;-75
2022/12/04 03:51:51;;;;;;;;;;;2.40;99.90;;;;;;5110152;27;19938;-76
2022/12/04 03:54:20;;;;;;;;;;;2.40;99.90;;;;;;5110479;28;19988;-76
2022/12/04 03:56:50;;;;;;;;;;;2.30;99.90;;;;;;5128569;27;19962;-76
2022/12/04 03:59:20;;;;;;;;;;;2.30;99.90;;;;;;5110216;27;19927;-76
2022/12/04 04:01:49;;;;;;;;;;;2.30;99.90;;;;;;5126866;28;19968;-76
2022/12/04 04:04:18;;;;;;;;;;;2.20;99.90;;;;;;5128328;28;19931;-76
2022/12/04 04:06:50;;;;;;;;;;;2.20;99.90;;;;;;5113511;28;19928;-79
2022/12/04 04:09:18;;;;;;;;;;;2.20;99.90;;;;;;5113547;28;19928;-79
2022/12/04 04:11:48;;;;;;;;;;;2.20;99.90;;;;;;5110004;28;20014;-79
2022/12/04 04:25:34;;;;;;;;;;;2.10;99.90;;;;;;5119120;27;19934;-79
2022/12/04 04:28:01;;;;;;;;;;;2.10;99.90;;;;;;5116382;27;20118;-79
2022/12/04 04:30:29;;;;;;;;;;;2.10;99.90;;;;;;5115699;27;19934;-79
2022/12/04 04:32:58;;;;;;;;;;;2.10;99.90;;;;;;5133627;27;19949;-79
2022/12/04 04:35:28;;;;;;;;;;;2.10;99.90;;;;;;5116416;27;19976;-79
2022/12/04 04:38:01;;;;;;;;;;;2.10;99.90;;;;;;5134872;27;20004;-79
2022/12/04 04:40:33;;;;;;;;;;;2.00;99.90;;;;;;5100418;27;19980;-78
2022/12/04 04:43:04;;;;;;;;;;;2.00;99.90;;;;;;5119473;27;19972;-78
2022/12/04 04:45:33;;;;;;;;;;;2.30;99.90;;;;;;5123166;27;19928;-79
2022/12/04 04:48:02;;;;;;;;;;;0.70;99.90;;;;;;5107912;27;19970;-78
2022/12/04 04:50:30;;;;;;;;;;;2.00;99.90;;;;;;5111840;27;19963;-78
2022/12/04 04:53:00;;;;;;;;;;;2.00;99.90;;;;;;5127848;27;19928;-78
2022/12/04 04:55:28;;;;;;;;;;;2.00;99.90;;;;;;5123347;27;19932;-77
2022/12/04 04:58:05;;;;;;;;;;;1.90;99.90;;;;;;5132189;27;19927;-77
2022/12/04 05:00:32;;;;;;;;;;;1.90;99.90;;;;;;5103910;27;19967;-77
2022/12/04 05:02:59;;;;;;;;;;;1.90;99.90;;;;;;5107574;27;19950;-76
2022/12/04 05:05:26;;;;;;;;;;;1.90;99.90;;;;;;5128265;27;19927;-77
2022/12/04 05:07:53;;;;;;;;;;;1.90;99.90;;;;;;5130673;27;19927;-76
2022/12/04 05:10:21;;;;;;;;;;;1.90;99.90;;;;;;5113439;27;19935;-77
2022/12/04 05:12:48;;;;;;;;;;;1.80;99.90;;;;;;5112398;27;19928;-76
2022/12/04 05:15:15;;;;;;;;;;;1.90;99.90;;;;;;5128744;27;20620;-76
2022/12/04 05:17:42;;;;;;;;;;;1.90;99.90;;;;;;5113556;27;20391;-76
2022/12/04 05:20:08;;;;;;;;;;;1.90;99.90;;;;;;5099320;27;20425;-76
2022/12/04 05:22:36;;;;;;;;;;;1.90;99.90;;;;;;5125565;27;19972;-76
2022/12/04 05:25:04;;;;;;;;;;;1.90;99.90;;;;;;5130805;27;19924;-76
2022/12/04 05:27:32;;;;;;;;;;;2.00;99.90;;;;;;5128866;27;20054;-76
2022/12/04 05:29:59;;;;;;;;;;;2.00;99.90;;;;;;5110286;27;19972;-76
2022/12/04 05:32:28;;;;;;;;;;;2.00;99.90;;;;;;5110256;27;19927;-76
2022/12/04 05:34:56;;;;;;;;;;;2.00;99.90;;;;;;5131056;27;19966;-76
2022/12/04 05:37:23;;;;;;;;;;;2.00;99.90;;;;;;5112886;27;19923;-76
2022/12/04 05:39:50;;;;;;;;;;;2.00;99.90;;;;;;5112211;27;19927;-77
2022/12/04 05:42:17;;;;;;;;;;;1.90;99.90;;;;;;5109062;27;20296;-77
2022/12/04 05:44:45;;;;;;;;;;;2.00;99.90;;;;;;5123844;27;19927;-75
2022/12/04 05:47:12;;;;;;;;;;;2.00;99.90;;;;;;5112621;27;19977;-76
2022/12/04 05:49:39;;;;;;;;;;;2.00;99.90;;;;;;5110708;27;19975;-76
2022/12/04 05:52:06;;;;;;;;;;;2.00;99.90;;;;;;5111296;27;19932;-76
2022/12/04 05:54:33;;;;;;;;;;;2.00;99.90;;;;;;5101278;28;20307;-75
2022/12/04 05:57:00;;;;;;;;;;;2.00;99.90;;;;;;5109665;27;20301;-75
2022/12/04 05:59:27;;;;;;;;;;;2.00;99.90;;;;;;5112245;27;19923;-74
2022/12/04 06:01:55;;;;;;;;;;;2.00;99.90;;;;;;5112016;27;19927;-75
2022/12/04 06:04:22;;;;;;;;;;;2.10;99.90;;;;;;5109955;27;20183;-76
2022/12/04 06:06:49;;;;;;;;;;;2.10;99.90;;;;;;5122392;27;19951;-76
2022/12/04 06:09:16;;;;;;;;;;;2.10;99.90;;;;;;5113918;27;19951;-77
2022/12/04 06:11:46;;;;;;;;;;;2.10;99.90;;;;;;5114192;27;19931;-76
2022/12/04 06:14:14;;;;;;;;;;;2.10;99.90;;;;;;5112983;27;19927;-76
2022/12/04 06:16:42;;;;;;;;;;;2.10;99.90;;;;;;5112949;27;20304;-77
2022/12/04 06:19:11;;;;;;;;;;;2.20;99.90;;;;;;5113073;27;19928;-77
2022/12/04 06:21:39;;;;;;;;;;;2.20;99.90;;;;;;5112855;27;19934;-76
2022/12/04 06:24:07;;;;;;;;;;;2.20;99.90;;;;;;5131611;27;20640;-76
2022/12/04 06:26:34;;;;;;;;;;;2.30;99.90;;;;;;5117156;27;20549;-78
2022/12/04 06:29:04;;;;;;;;;;;2.30;99.90;;;;;;5113022;27;19934;-76
2022/12/04 06:31:32;;;;;;;;;;;2.30;99.90;;;;;;5110991;27;20414;-76
2022/12/04 06:33:59;;;;;;;;;;;2.40;99.90;;;;;;5111303;27;20333;-77
2022/12/04 06:36:27;;;;;;;;;;;2.40;99.90;;;;;;5131959;27;19990;-76
2022/12/04 06:38:55;;;;;;;;;;;2.40;99.90;;;;;;5112569;27;19923;-77
2022/12/04 06:41:22;;;;;;;;;;;2.50;99.90;;;;;;5131941;27;19973;-76
2022/12/04 06:43:50;;;;;;;;;;;2.50;99.90;;;;;;5104327;28;20407;-78
2022/12/04 06:46:18;;;;;;;;;;;2.50;99.90;;;;;;5103598;27;20018;-76
2022/12/04 06:48:45;;;;;;;;;;;2.50;99.90;;;;;;5133691;27;19954;-77
2022/12/04 06:51:13;;;;;;;;;;;2.50;99.90;;;;;;5115357;27;20385;-78
2022/12/04 06:53:44;;;;;;;;;;;2.50;99.90;;;;;;5113377;27;21239;-77
2022/12/04 06:56:13;;;;;;;;;;;2.40;99.90;;;;;;5112986;27;19931;-78
2022/12/04 06:58:40;;;;;;;;;;;2.40;99.90;;;;;;5112891;27;20297;-77
2022/12/04 07:01:07;;;;;;;;;;;2.40;99.90;;;;;;5109223;27;19924;-77
2022/12/04 07:03:35;;;;;;;;;;;2.40;99.90;;;;;;5111527;28;20014;-77
2022/12/04 07:06:10;;;;;;;;;;;2.40;99.90;;;;;;5112987;27;19973;-77
2022/12/04 07:08:37;;;;;;;;;;;2.50;99.90;;;;;;5128778;27;19927;-76
2022/12/04 07:11:05;;;;;;;;;;;2.50;99.90;;;;;;5106445;28;19939;-76
2022/12/04 07:13:32;;;;;;;;;;;2.50;99.90;;;;;;5112359;27;19937;-76
2022/12/04 07:15:59;;;;;;;;;;;;;;;;;;5107295;27;19959;-77
2022/12/04 07:18:26;;;;;;;;;;;2.40;99.90;;;;;;5111690;27;19930;-77
2022/12/04 07:20:56;;;;;;;;;;;2.30;99.90;;;;;;5112542;27;19930;-76
2022/12/04 07:23:23;;;;;;;;;;;2.30;99.90;;;;;;5132115;27;19930;-74
2022/12/04 07:25:51;;;;;;;;;;;2.40;99.90;;;;;;5112678;27;19927;-76
2022/12/04 07:28:20;;;;;;;;;;;2.40;99.90;;;;;;5117725;27;19923;-74
2022/12/04 07:30:47;;;;;;;;;;;2.40;99.90;;;;;;5124736;27;19927;-76
2022/12/04 07:33:14;;;;;;;;;;;2.40;99.90;;;;;;5115895;27;19928;-75
2022/12/04 07:35:41;;;;;;;;;;;2.40;99.90;;;;;;5100117;28;20004;-75
2022/12/04 07:38:08;;;;;;;;;;;2.40;99.90;;;;;;5109432;27;20513;-75
2022/12/04 07:40:36;;;;;;;;;;;2.40;99.90;;;;;;5105228;27;20251;-76
2022/12/04 07:43:04;;;;;;;;;;;2.50;99.90;;;;;;5124233;27;19986;-76
2022/12/04 07:45:32;;;;;;;;;;;2.50;99.90;;;;;;5106939;28;19923;-77
2022/12/04 07:47:59;;;;;;;;;;;2.50;99.90;;;;;;5124290;27;19931;-77
2022/12/04 07:50:26;;;;;;;;;;;2.50;99.90;;;;;;5106828;27;20390;-76
2022/12/04 07:52:52;;;;;;;;;;;2.60;99.90;;;;;;5109973;27;19923;-76
2022/12/04 07:55:19;;;;;;;;;;;2.60;99.90;;;;;;5128212;27;19946;-78
2022/12/04 07:57:46;;;;;;;;;;;2.60;99.90;;;;;;5111366;28;19927;-79
2022/12/04 08:00:14;;;;;;;;;;;2.60;99.90;;;;;;5104138;28;19923;-76
2022/12/04 08:02:43;;;;;;;;;;;2.60;99.90;;;;;;5126023;27;19924;-77
2022/12/04 08:05:10;;;;;;;;;;;2.60;99.90;;;;;;5106114;28;20575;-77
2022/12/04 08:07:38;;;;;;;;;;;2.60;99.90;;;;;;5118079;28;19928;-81
2022/12/04 08:10:05;;;;;;;;;;;2.60;99.90;;;;;;5130752;28;19928;-81
2022/12/04 08:12:33;;;;;;;;;;;2.60;99.90;;;;;;5100925;28;19928;-82
2022/12/04 08:15:02;;;;;;;;;;;2.60;99.90;;;;;;5117206;28;19961;-80
2022/12/04 08:17:29;;;;;;;;;;;2.60;99.90;;;;;;5117002;28;19923;-81
2022/12/04 08:19:57;;;;;;;;;;;2.60;99.90;;;;;;5139128;28;19927;-77
2022/12/04 08:22:25;;;;;;;;;;;2.70;99.90;;;;;;5140796;28;20347;-82
2022/12/04 08:24:52;;;;;;;;;;;2.80;99.90;;;;;;5122188;28;19923;-81
2022/12/04 08:27:19;;;;;;;;;;;2.80;99.90;;;;;;5122916;27;19927;-82
2022/12/04 08:29:46;;;;;;;;;;;2.80;99.90;;;;;;5140493;28;19928;-79
2022/12/04 08:32:13;;;;;;;;;;;2.80;99.90;;;;;;5119692;28;19928;-80
2022/12/04 08:34:40;;;;;;;;;;;2.80;99.90;;;;;;5114943;28;19927;-79
2022/12/04 08:37:09;;;;;;;;;;;2.80;99.90;;;;;;5112225;28;20113;-78
2022/12/04 08:39:36;;;;;;;;;;;2.70;99.90;;;;;;5112253;28;20026;-80
2022/12/04 08:42:03;;;;;;;;;;;2.80;99.90;;;;;;5110928;28;19973;-77
2022/12/04 08:44:30;;;;;;;;;;;2.80;99.90;;;;;;5120847;28;19924;-78
2022/12/04 08:46:58;;;;;;;;;;;2.80;99.90;;;;;;5112737;28;19927;-79
2022/12/04 08:49:25;;;;;;;;;;;2.90;99.90;;;;;;5127394;28;19994;-77
2022/12/04 08:51:52;;;;;;;;;;;2.80;99.90;;;;;;5107083;28;20010;-78
2022/12/04 08:54:20;;;;;;;;;;;2.70;99.90;;;;;;5111513;28;19939;-77
2022/12/04 08:56:50;;;;;;;;;;;2.80;99.90;;;;;;5111163;28;19984;-77
2022/12/04 08:59:18;;;;;;;;;;;2.70;99.90;;;;;;5121399;28;19953;-79
2022/12/04 09:01:45;;;;;;;;;;;2.80;99.90;;;;;;5126818;27;19955;-79
2022/12/04 09:04:12;;;;;;;;;;;2.80;99.90;;;;;;5104159;28;20463;-79
2022/12/04 09:06:39;;;;;;;;;;;2.80;99.90;;;;;;5135772;27;19931;-79
2022/12/04 09:09:06;;;;;;;;;;;2.80;99.90;;;;;;5114365;27;19973;-79
2022/12/04 09:11:35;;;;;;;;;;;2.80;99.90;;;;;;5105339;27;19931;-78
2022/12/04 09:14:07;;;;;;;;;;;2.80;99.90;;;;;;5112719;27;20020;-78
2022/12/04 09:16:36;;;;;;;;;;;4.40;99.90;;;;;;5114093;27;19923;-78
2022/12/04 09:19:03;;;;;;;;;;;2.80;99.90;;;;;;5141843;27;19927;-78
2022/12/04 09:21:31;;;;;;;;;;;2.90;99.90;;;;;;5118932;27;19959;-79
2022/12/04 09:23:59;;;;;;;;;;;2.90;99.90;;;;;;5138397;27;19927;-78
2022/12/04 09:26:27;;;;;;;;;;;2.90;99.90;;;;;;5132303;27;19924;-83
2022/12/04 09:28:56;;;;;;;;;;;2.90;99.90;;;;;;5115080;27;19931;-83
2022/12/04 09:31:24;;;;;;;;;;;3.00;99.90;;;;;;5111603;27;19939;-82
2022/12/04 09:33:51;;;;;;;;;;;3.10;99.90;;;;;;5137262;27;20014;-82
2022/12/04 09:36:18;;;;;;;;;;;3.00;99.90;;;;;;5136228;27;19959;-83
2022/12/04 09:38:47;;;;;;;;;;;3.10;99.90;;;;;;5134111;27;19923;-83
2022/12/04 09:41:25;;;;;;;;;;;3.10;99.90;;;;;;5113569;27;19972;-82
2022/12/04 09:43:56;;;;;;;;;;;3.10;99.90;;;;;;5106531;27;19928;-82
2022/12/04 09:46:26;;;;;;;;;;;3.20;99.90;;;;;;5111208;28;19942;-82
2022/12/04 09:48:56;;;;;;;;;;;3.30;99.90;;;;;;5117320;27;19948;-83
2022/12/04 09:51:23;;;;;;;;;;;3.30;99.90;;;;;;5097020;28;19927;-83
2022/12/04 09:53:53;;;;;;;;;;;3.30;99.90;;;;;;5110813;27;20490;-83
2022/12/04 09:56:20;;;;;;;;;;;3.30;99.90;;;;;;5130896;27;19927;-82
2022/12/04 09:58:49;;;;;;;;;;;3.30;99.90;;;;;;5114567;27;19965;-81
2022/12/04 10:01:19;;;;;;;;;;;3.40;99.90;;;;;;5116396;27;19935;-80
2022/12/04 10:03:48;;;;;;;;;;;3.40;99.90;;;;;;5124137;27;20344;-80
2022/12/04 10:06:18;;;;;;;;;;;3.40;99.90;;;;;;5120084;27;20044;-80
2022/12/04 10:08:46;;;;;;;;;;;3.50;99.90;;;;;;5112692;27;19923;-80
2022/12/04 10:11:17;;;;;;;;;;;3.50;99.90;;;;;;5135482;27;20026;-79
2022/12/04 10:13:50;;;;;;;;;;;3.50;99.90;;;;;;5119370;27;19927;-80
2022/12/04 10:16:20;;;;;;;;;;;3.50;99.90;;;;;;5107529;28;19924;-80
2022/12/04 10:18:53;;;;;;;;;;;3.50;99.90;;;;;;5114608;27;20400;-79
2022/12/04 10:21:29;;;;;;;;;;;3.40;99.90;;;;;;5101742;27;20046;-80
2022/12/04 10:24:01;;;;;;;;;;;3.40;99.90;;;;;;5115927;27;19927;-79
2022/12/04 10:26:32;;;;;;;;;;;3.50;99.90;;;;;;5101288;28;19972;-80
2022/12/04 10:29:01;;;;;;;;;;;3.60;99.90;;;;;;5095094;28;19955;-79
2022/12/04 10:31:29;;;;;;;;;;;3.60;99.90;;;;;;5099348;28;19942;-78
2022/12/04 10:34:01;;;;;;;;;;;3.60;99.90;;;;;;5136420;27;19928;-79
2022/12/04 10:36:30;;;;;;;;;;;3.60;99.90;;;;;;5123056;27;19924;-78
2022/12/04 10:38:58;;;;;;;;;;;3.60;99.90;;;;;;5136560;27;19911;-79
2022/12/04 10:41:29;;;;;;;;;;;3.60;99.90;;;;;;5119801;27;19912;-78
2022/12/04 10:43:56;;;;;;;;;;;3.60;99.90;;;;;;5116638;27;19938;-77
2022/12/04 10:46:24;;;;;;;;;;;3.60;99.90;;;;;;5137501;27;19980;-78
2022/12/04 10:48:53;;;;;;;;;;;3.70;99.90;;;;;;5119357;27;19934;-79
2022/12/04 10:51:22;;;;;;;;;;;3.70;99.90;;;;;;5126309;27;19927;-79
2022/12/04 10:53:50;;;;;;;;;;;3.80;99.90;;;;;;5141474;27;19911;-79
2022/12/04 10:56:18;;;;;;;;;;;3.80;99.90;;;;;;5124192;27;19934;-78
2022/12/04 10:58:54;;;;;;;;;;;3.80;99.90;;;;;;5141508;27;19927;-79
2022/12/04 11:01:21;;;;;;;;;;;3.90;99.90;;;;;;5119377;27;19924;-78
2022/12/04 11:03:55;;;;;;;;;;;4.10;99.90;;;;;;5123777;27;19931;-78
2022/12/04 11:06:25;;;;;;;;;;;4.10;99.90;;;;;;5122266;27;19934;-78
2022/12/04 11:08:53;;;;;;;;;;;4.00;99.90;;;;;;5138649;27;19956;-79
2022/12/04 11:11:23;;;;;;;;;;;4.00;99.90;;;;;;5142458;27;19960;-79
2022/12/04 11:14:00;;;;;;;;;;;4.00;99.90;;;;;;5122464;27;19932;-79
2022/12/04 11:16:32;;;;;;;;;;;4.00;99.90;;;;;;5123925;27;19969;-79
2022/12/04 11:18:58;;;;;;;;;;;4.00;99.90;;;;;;5122478;27;19946;-78
2022/12/04 11:21:28;;;;;;;;;;;4.00;99.90;;;;;;5123413;27;19939;-81
2022/12/04 11:23:55;;;;;;;;;;;4.10;99.90;;;;;;5116556;27;19915;-83
2022/12/04 11:26:29;;;;;;;;;;;4.10;99.90;;;;;;5121804;28;19928;-82
2022/12/04 11:29:00;;;;;;;;;;;3.90;99.90;;;;;;5123356;27;20001;-80
2022/12/04 11:31:27;;;;;;;;;;;3.80;99.90;;;;;;5106707;28;20018;-83
2022/12/04 11:33:57;;;;;;;;;;;3.70;99.90;;;;;;5122642;27;20382;-81
2022/12/04 11:36:26;;;;;;;;;;;3.70;99.90;;;;;;5119719;27;19927;-81
2022/12/04 11:39:04;;;;;;;;;;;3.70;99.90;;;;;;5115168;27;19924;-82
2022/12/04 11:41:32;;;;;;;;;;;3.80;99.90;;;;;;5108135;28;20426;-80
2022/12/04 11:43:59;;;;;;;;;;;3.80;99.90;;;;;;5103423;27;20096;-80
2022/12/04 11:46:27;;;;;;;;;;;3.80;99.90;;;;;;5132233;27;19923;-80
2022/12/04 11:48:55;;;;;;;;;;;3.80;99.90;;;;;;5117285;27;20479;-81
2022/12/04 11:51:27;;;;;;;;;;;3.80;99.90;;;;;;5110872;27;19961;-80
2022/12/04 11:53:58;;;;;;;;;;;3.80;99.90;;;;;;5129413;27;19935;-82
2022/12/04 11:56:29;;;;;;;;;;;3.80;99.90;;;;;;5136353;27;19934;-82
2022/12/04 11:59:06;;;;;;;;;;;3.90;99.90;;;;;;5127937;27;20014;-83
2022/12/04 12:01:40;;;;;;;;;;;3.90;99.90;;;;;;5125526;27;19931;-83
2022/12/04 12:04:40;;;;;;;;;;;3.90;99.90;;;;;;5115534;28;19930;-83
2022/12/04 12:07:13;;;;;;;;;;;3.80;99.90;;;;;;5035438;28;19925;-82
2022/12/04 12:09:47;;;;;;;;;;;3.80;99.90;;;;;;5047736;28;20408;-83
2022/12/04 12:12:17;;;;;;;;;;;3.90;99.90;;;;;;5067241;28;19923;-83
2022/12/04 12:14:49;;;;;;;;;;;3.90;99.90;;;;;;5126533;28;19935;-83
2022/12/04 12:17:20;;;;;;;;;;;5.20;99.90;;;;;;5103333;28;19935;-82
2022/12/04 12:20:05;;;;;;;;;;;3.90;99.90;;;;;;5110403;28;19959;-82
2022/12/04 12:22:51;;;;;;;;;;;3.90;99.90;;;;;;5132463;28;20480;-79
2022/12/04 12:25:21;;;;;;;;;;;3.90;99.90;;;;;;5130971;28;20404;-81
2022/12/04 12:27:57;;;;;;;;;;;4.00;99.90;;;;;;5115148;28;19930;-81
2022/12/04 12:30:24;;;;;;;;;;;4.00;99.90;;;;;;5108241;28;19923;-81
2022/12/04 12:32:58;;;;;;;;;;;3.90;99.90;;;;;;5116486;28;20718;-81
2022/12/04 12:35:27;;;;;;;;;;;3.90;99.90;;;;;;5118818;27;19924;-82
2022/12/04 12:37:56;;;;;;;;;;;3.90;99.90;;;;;;5133612;27;19931;-82
2022/12/04 12:40:29;;;;;;;;;;;4.00;99.90;;;;;;5118887;27;19927;-82
2022/12/04 12:43:00;;;;;;;;;;;4.00;99.90;;;;;;5115709;27;20619;-80
2022/12/04 12:45:30;;;;;;;;;;;4.00;99.90;;;;;;5120393;27;19934;-83
2022/12/04 12:48:00;;;;;;;;;;;4.10;99.90;;;;;;5111671;27;19943;-81
2022/12/04 12:50:29;;;;;;;;;;;4.00;99.90;;;;;;5136713;27;20478;-83
2022/12/04 12:52:58;;;;;;;;;;;4.10;99.90;;;;;;5119002;27;20033;-80
2022/12/04 12:55:27;;;;;;;;;;;4.10;99.90;;;;;;5137577;27;19951;-81
2022/12/04 12:58:04;;;;;;;;;;;4.00;99.90;;;;;;5138213;27;19989;-82
2022/12/04 13:00:36;;;;;;;;;;;4.00;99.90;;;;;;5137644;27;20725;-82
2022/12/04 13:03:05;;;;;;;;;;;4.10;99.90;;;;;;5137286;27;19927;-83
2022/12/04 13:05:35;;;;;;;;;;;4.10;99.90;;;;;;5119688;27;20017;-83
2022/12/04 13:08:06;;;;;;;;;;;4.20;99.90;;;;;;5138669;27;19973;-82
2022/12/04 13:10:36;;;;;;;;;;;4.20;99.90;;;;;;5138486;27;19984;-85
2022/12/04 13:13:07;;;;;;;;;;;4.20;99.90;;;;;;5123100;27;19927;-83
2022/12/04 13:15:37;;;;;;;;;;;4.10;99.90;;;;;;5138790;27;19945;-83
2022/12/04 13:18:10;;;;;;;;;;;4.10;99.90;;;;;;5120329;27;19923;-84
2022/12/04 13:20:39;;;;;;;;;;;4.10;99.90;;;;;;5138699;27;19987;-81
2022/12/04 13:23:18;;;;;;;;;;;4.10;99.90;;;;;;5132717;27;20382;-85
2022/12/04 13:25:50;;;;;;;;;;;4.10;99.90;;;;;;5133969;27;19931;-84
2022/12/04 13:28:23;;;;;;;;;;;4.00;99.90;;;;;;5136829;27;19935;-87
2022/12/04 13:30:55;;;;;;;;;;;4.00;99.90;;;;;;5115681;27;19964;-85
2022/12/04 13:33:37;;;;;;;;;;;4.00;99.90;;;;;;5119192;27;19950;-83
2022/12/04 13:36:15;;;;;;;;;;;4.20;99.90;;;;;;5130050;27;19927;-85
2022/12/04 13:38:58;;;;;;;;;;;4.10;99.90;;;;;;5136789;27;20012;-85
2022/12/04 13:41:27;;;;;;;;;;;4.10;99.90;;;;;;5118149;27;20007;-85
2022/12/04 13:43:57;;;;;;;;;;;4.10;99.90;;;;;;5109016;27;19923;-85
2022/12/04 13:46:30;;;;;;;;;;;4.10;99.90;;;;;;5117231;28;19938;-83
2022/12/04 13:49:07;;;;;;;;;;;4.00;99.90;;;;;;5133690;27;20588;-86
2022/12/04 13:51:36;;;;;;;;;;;4.10;99.90;;;;;;5119041;27;19924;-84
2022/12/04 13:54:20;;;;;;;;;;;4.10;99.90;;;;;;5119500;27;19930;-84
2022/12/04 13:56:48;;;;;;;;;;;4.10;99.90;;;;;;5135798;27;19923;-88
2022/12/04 13:59:22;;;;;;;;;;;4.30;99.90;;;;;;5128103;27;20038;-91
2022/12/04 14:01:50;;;;;;;;;;;4.20;99.90;;;;;;5112088;27;19977;-83
2022/12/04 14:04:23;;;;;;;;;;;4.30;99.90;;;;;;5105501;27;19930;-84
2022/12/04 14:06:51;;;;;;;;;;;4.20;99.90;;;;;;5118311;27;19924;-85
2022/12/04 14:09:21;;;;;;;;;;;4.30;99.90;;;;;;5107969;28;19927;-84
2022/12/04 14:11:51;;;;;;;;;;;4.30;99.90;;;;;;5119778;27;19931;-84
2022/12/04 14:14:24;;;;;;;;;;;4.30;99.90;;;;;;5118273;27;19928;-83
2022/12/04 14:16:56;;;;;;;;;;;4.30;99.90;;;;;;5113951;28;19992;-83
2022/12/04 14:19:28;;;;;;;;;;;4.30;99.90;;;;;;5124484;27;20021;-83
2022/12/04 14:21:55;;;;;;;;;;;4.30;99.90;;;;;;5130812;27;20377;-83
2022/12/04 14:24:29;;;;;;;;;;;4.20;99.90;;;;;;5131298;27;19996;-82
2022/12/04 14:26:56;;;;;;;;;;;4.20;99.90;;;;;;5118124;27;19927;-81
2022/12/04 14:29:34;;;;;;;;;;;4.20;99.90;;;;;;5117331;27;19919;-83
2022/12/04 14:32:08;;;;;;;;;;;4.20;99.90;;;;;;5116758;27;19927;-83
2022/12/04 14:34:35;;;;;;;;;;;4.20;99.90;;;;;;5131100;27;19965;-83
2022/12/04 14:37:03;;;;;;;;;;;4.20;99.90;;;;;;5114524;27;19928;-83
2022/12/04 14:39:32;;;;;;;;;;;4.10;99.90;;;;;;5116744;27;19923;-83
2022/12/04 14:42:05;;;;;;;;;;;4.10;99.90;;;;;;5110675;28;19935;-83
2022/12/04 14:44:33;;;;;;;;;;;4.10;99.90;;;;;;5105939;27;19928;-83
2022/12/04 14:47:08;;;;;;;;;;;4.10;99.90;;;;;;5112705;28;19928;-84
2022/12/04 14:49:43;;;;;;;;;;;4.10;99.90;;;;;;5102311;28;19931;-85
2022/12/04 14:52:13;;;;;;;;;;;4.00;99.90;;;;;;5107659;27;19927;-81
2022/12/04 14:54:43;;;;;;;;;;;4.00;99.90;;;;;;5114897;27;20381;-87
2022/12/04 14:57:22;;;;;;;;;;;4.00;99.90;;;;;;5114936;27;19959;-82
2022/12/04 14:59:51;;;;;;;;;;;3.90;99.90;;;;;;5114941;27;19931;-83